TimeCST,TemperatureF,Dew PointF,Humidity,Sea Level PressureIn,VisibilityMPH,Wind Direction,Wind SpeedMPH,Gust SpeedMPH,PrecipitationIn,Events,Conditions,WindDirDegrees,DateUTC
12:53 AM,30.9,28.0,89,30.39,10.0,Calm,Calm,-,N/A,,Clear,0,2012-11-16 06:53:00
1:53 AM,30.0,28.0,92,30.39,10.0,Calm,Calm,-,N/A,,Clear,0,2012-11-16 07:53:00
2:53 AM,28.9,27.0,92,30.40,10.0,Calm,Calm,-,N/A,,Clear,0,2012-11-16 08:53:00
3:53 AM,28.0,26.1,92,30.40,10.0,Calm,Calm,-,N/A,,Clear,0,2012-11-16 09:53:00
4:53 AM,27.0,25.0,92,30.41,10.0,Calm,Calm,-,N/A,,Clear,0,2012-11-16 10:53:00
5:53 AM,28.0,26.1,92,30.43,10.0,Calm,Calm,-,N/A,,Clear,0,2012-11-16 11:53:00
6:53 AM,26.1,25.0,96,30.45,9.0,Calm,Calm,-,N/A,,Clear,0,2012-11-16 12:53:00
7:53 AM,30.0,28.0,92,30.46,10.0,Calm,Calm,-,N/A,,Clear,0,2012-11-16 13:53:00
8:53 AM,36.0,32.0,86,30.47,10.0,Calm,Calm,-,N/A,,Clear,0,2012-11-16 14:53:00
9:53 AM,46.0,34.0,63,30.46,10.0,Calm,Calm,-,N/A,,Clear,0,2012-11-16 15:53:00
10:53 AM,55.9,34.0,44,30.45,10.0,Calm,Calm,-,N/A,,Clear,0,2012-11-16 16:53:00
11:53 AM,57.9,30.0,35,30.43,10.0,East,8.1,-,N/A,,Clear,90,2012-11-16 17:53:00
12:53 PM,60.1,30.9,33,30.40,10.0,Calm,Calm,-,N/A,,Clear,0,2012-11-16 18:53:00
1:53 PM,61.0,30.0,31,30.38,10.0,NE,5.8,-,N/A,,Clear,50,2012-11-16 19:53:00
2:53 PM,62.1,28.9,29,30.37,10.0,Variable,3.5,-,N/A,,Clear,0,2012-11-16 20:53:00
3:53 PM,61.0,28.9,30,30.37,10.0,NE,4.6,-,N/A,,Clear,50,2012-11-16 21:53:00
4:53 PM,57.9,28.9,33,30.37,10.0,NNE,3.5,-,N/A,,Clear,30,2012-11-16 22:53:00
5:53 PM,44.1,33.1,65,30.38,10.0,Calm,Calm,-,N/A,,Clear,0,2012-11-16 23:53:00
6:53 PM,41.0,30.9,67,30.41,10.0,Calm,Calm,-,N/A,,Clear,0,2012-11-17 00:53:00
7:53 PM,37.9,32.0,79,30.41,10.0,Calm,Calm,-,N/A,,Clear,0,2012-11-17 01:53:00
8:53 PM,36.0,30.9,82,30.42,10.0,Calm,Calm,-,N/A,,Clear,0,2012-11-17 02:53:00
9:53 PM,34.0,28.9,82,30.42,10.0,Calm,Calm,-,N/A,,Clear,0,2012-11-17 03:53:00
10:53 PM,34.0,30.0,85,30.42,10.0,Calm,Calm,-,N/A,,Clear,0,2012-11-17 04:53:00
11:53 PM,32.0,28.0,85,30.42,10.0,Calm,Calm,-,N/A,,Clear,0,2012-11-17 05:53:00